sensor_id;sensor_type;location;lat;lon;timestamp;pressure;altitude;pressure_sealevel;temperature;humidity
43161;BME280;40968;52.342;5.528;2022-07-09T00:02:19;102737.84;;;17.78;63.66
43161;BME280;40968;52.342;5.528;2022-07-09T00:04:46;102825.31;;;18.30;63.63
43161;BME280;40968;52.342;5.528;2022-07-09T00:07:14;102868.63;;;18.55;63.98
43161;BME280;40968;52.342;5.528;2022-07-09T00:09:40;102893.97;;;18.67;64.00
43161;BME280;40968;52.342;5.528;2022-07-09T00:12:07;102816.91;;;18.21;63.93
43161;BME280;40968;52.342;5.528;2022-07-09T00:14:34;102853.50;;;18.40;63.79
43161;BME280;40968;52.342;5.528;2022-07-09T00:17:01;102845.72;;;18.35;63.63
43161;BME280;40968;52.342;5.528;2022-07-09T00:19:27;102787.31;;;17.81;63.57
43161;BME280;40968;52.342;5.528;2022-07-09T00:21:54;102888.84;;;18.51;64.02
43161;BME280;40968;52.342;5.528;2022-07-09T00:24:22;102809.28;;;18.02;63.89
43161;BME280;40968;52.342;5.528;2022-07-09T00:26:48;102884.13;;;18.42;63.80
43161;BME280;40968;52.342;5.528;2022-07-09T00:29:15;102851.41;;;18.19;64.01
43161;BME280;40968;52.342;5.528;2022-07-09T00:31:42;102882.09;;;18.33;63.95
43161;BME280;40968;52.342;5.528;2022-07-09T00:34:11;102874.41;;;18.27;63.88
43161;BME280;40968;52.342;5.528;2022-07-09T00:36:37;102584.56;;;16.51;64.13
43161;BME280;40968;52.342;5.528;2022-07-09T00:39:04;102796.88;;;17.74;64.04
43161;BME280;40968;52.342;5.528;2022-07-09T00:41:32;102861.66;;;18.16;64.23
43161;BME280;40968;52.342;5.528;2022-07-09T00:43:59;102852.09;;;18.10;64.52
43161;BME280;40968;52.342;5.528;2022-07-09T00:46:25;102829.59;;;17.97;64.47
43161;BME280;40968;52.342;5.528;2022-07-09T00:48:52;102849.97;;;18.02;64.90
43161;BME280;40968;52.342;5.528;2022-07-09T00:51:19;102857.56;;;17.97;64.96
43161;BME280;40968;52.342;5.528;2022-07-09T00:53:46;102863.13;;;17.96;64.90
43161;BME280;40968;52.342;5.528;2022-07-09T00:56:15;102774.97;;;17.40;64.89
43161;BME280;40968;52.342;5.528;2022-07-09T00:58:44;102849.16;;;17.76;65.22
43161;BME280;40968;52.342;5.528;2022-07-09T01:01:11;102824.44;;;17.68;65.00
43161;BME280;40968;52.342;5.528;2022-07-09T01:03:38;102817.53;;;17.64;65.19
43161;BME280;40968;52.342;5.528;2022-07-09T01:06:04;102808.09;;;17.56;65.34
43161;BME280;40968;52.342;5.528;2022-07-09T01:08:31;102854.78;;;17.86;65.35
43161;BME280;40968;52.342;5.528;2022-07-09T01:10:58;102857.59;;;17.84;65.28
43161;BME280;40968;52.342;5.528;2022-07-09T01:13:25;102858.69;;;17.82;65.59
43161;BME280;40968;52.342;5.528;2022-07-09T01:15:53;102850.88;;;17.77;65.44
43161;BME280;40968;52.342;5.528;2022-07-09T01:18:20;102818.50;;;17.63;65.45
43161;BME280;40968;52.342;5.528;2022-07-09T01:20:47;102853.19;;;17.70;65.59
43161;BME280;40968;52.342;5.528;2022-07-09T01:23:14;102747.16;;;17.12;65.63
43161;BME280;40968;52.342;5.528;2022-07-09T01:25:42;102851.03;;;17.63;66.04
43161;BME280;40968;52.342;5.528;2022-07-09T01:28:10;102838.91;;;17.55;66.15
43161;BME280;40968;52.342;5.528;2022-07-09T01:30:39;102706.97;;;16.80;65.82
43161;BME280;40968;52.342;5.528;2022-07-09T01:33:06;102741.00;;;16.97;66.25
43161;BME280;40968;52.342;5.528;2022-07-09T01:35:33;102824.41;;;17.44;66.35
43161;BME280;40968;52.342;5.528;2022-07-09T01:38:01;102837.31;;;17.40;66.59
43161;BME280;40968;52.342;5.528;2022-07-09T01:40:28;102807.19;;;17.19;66.89
43161;BME280;40968;52.342;5.528;2022-07-09T01:42:54;102794.19;;;17.11;66.88
43161;BME280;40968;52.342;5.528;2022-07-09T01:45:21;102802.44;;;17.10;66.88
43161;BME280;40968;52.342;5.528;2022-07-09T01:47:48;102840.56;;;17.32;67.09
43161;BME280;40968;52.342;5.528;2022-07-09T01:50:14;102776.28;;;16.83;67.22
43161;BME280;40968;52.342;5.528;2022-07-09T01:52:41;102798.53;;;17.01;67.29
43161;BME280;40968;52.342;5.528;2022-07-09T01:55:09;102791.81;;;16.94;67.53
43161;BME280;40968;52.342;5.528;2022-07-09T01:57:36;102844.03;;;17.21;67.53
43161;BME280;40968;52.342;5.528;2022-07-09T02:00:03;102812.19;;;16.99;67.50
43161;BME280;40968;52.342;5.528;2022-07-09T02:02:30;102843.38;;;17.18;67.93
43161;BME280;40968;52.342;5.528;2022-07-09T02:04:56;102841.53;;;17.18;67.89
43161;BME280;40968;52.342;5.528;2022-07-09T02:07:23;102833.84;;;17.12;68.17
43161;BME280;40968;52.342;5.528;2022-07-09T02:09:50;102840.78;;;17.16;68.16
43161;BME280;40968;52.342;5.528;2022-07-09T02:12:18;102792.31;;;16.86;68.50
43161;BME280;40968;52.342;5.528;2022-07-09T02:14:45;102841.00;;;17.13;68.50
43161;BME280;40968;52.342;5.528;2022-07-09T02:17:12;102841.88;;;17.14;68.68
43161;BME280;40968;52.342;5.528;2022-07-09T02:19:38;102768.16;;;16.70;68.99
43161;BME280;40968;52.342;5.528;2022-07-09T02:22:05;102752.38;;;16.64;69.19
43161;BME280;40968;52.342;5.528;2022-07-09T02:24:32;102803.94;;;17.01;69.12
43161;BME280;40968;52.342;5.528;2022-07-09T02:26:58;102648.19;;;16.18;69.11
43161;BME280;40968;52.342;5.528;2022-07-09T02:29:26;102791.25;;;17.01;69.04
43161;BME280;40968;52.342;5.528;2022-07-09T02:31:53;102822.81;;;17.15;69.40
43161;BME280;40968;52.342;5.528;2022-07-09T02:34:20;102678.84;;;16.31;69.94
43161;BME280;40968;52.342;5.528;2022-07-09T02:36:46;102704.72;;;16.48;70.13
43161;BME280;40968;52.342;5.528;2022-07-09T02:39:13;102778.56;;;16.89;70.47
43161;BME280;40968;52.342;5.528;2022-07-09T02:41:39;102751.91;;;16.70;70.54
43161;BME280;40968;52.342;5.528;2022-07-09T02:44:06;102828.75;;;17.20;70.55
43161;BME280;40968;52.342;5.528;2022-07-09T02:46:34;102770.78;;;16.97;70.44
43161;BME280;40968;52.342;5.528;2022-07-09T02:49:00;102761.28;;;16.92;70.50
43161;BME280;40968;52.342;5.528;2022-07-09T02:51:30;102806.41;;;17.30;70.37
43161;BME280;40968;52.342;5.528;2022-07-09T02:53:56;102801.75;;;17.32;70.35
43161;BME280;40968;52.342;5.528;2022-07-09T02:56:23;102709.69;;;16.80;70.41
43161;BME280;40968;52.342;5.528;2022-07-09T02:58:50;102809.66;;;17.35;70.79
43161;BME280;40968;52.342;5.528;2022-07-09T03:01:16;102764.72;;;17.06;70.54
43161;BME280;40968;52.342;5.528;2022-07-09T03:03:44;102814.13;;;17.36;70.46
43161;BME280;40968;52.342;5.528;2022-07-09T03:06:11;102681.44;;;16.58;70.55
43161;BME280;40968;52.342;5.528;2022-07-09T03:08:38;102810.41;;;17.37;70.62
43161;BME280;40968;52.342;5.528;2022-07-09T03:11:05;102814.84;;;17.38;70.40
43161;BME280;40968;52.342;5.528;2022-07-09T03:13:31;102755.75;;;17.06;70.17
43161;BME280;40968;52.342;5.528;2022-07-09T03:15:58;102777.47;;;17.17;70.33
43161;BME280;40968;52.342;5.528;2022-07-09T03:18:25;102811.19;;;17.39;70.19
43161;BME280;40968;52.342;5.528;2022-07-09T03:20:52;102600.91;;;16.23;70.09
43161;BME280;40968;52.342;5.528;2022-07-09T03:23:20;102678.63;;;16.73;69.86
43161;BME280;40968;52.342;5.528;2022-07-09T03:25:47;102809.72;;;17.46;70.19
43161;BME280;40968;52.342;5.528;2022-07-09T03:28:14;102809.72;;;17.46;70.54
43161;BME280;40968;52.342;5.528;2022-07-09T03:30:40;102767.19;;;17.22;69.92
43161;BME280;40968;52.342;5.528;2022-07-09T03:33:07;102780.28;;;17.29;69.71
43161;BME280;40968;52.342;5.528;2022-07-09T03:35:34;102811.47;;;17.47;69.61
43161;BME280;40968;52.342;5.528;2022-07-09T03:38:01;102757.78;;;17.15;69.74
43161;BME280;40968;52.342;5.528;2022-07-09T03:40:28;102664.00;;;16.63;69.50
43161;BME280;40968;52.342;5.528;2022-07-09T03:42:55;102775.09;;;17.38;69.91
43161;BME280;40968;52.342;5.528;2022-07-09T03:45:22;102559.91;;;16.04;69.67
43161;BME280;40968;52.342;5.528;2022-07-09T03:47:48;102701.69;;;16.92;70.06
43161;BME280;40968;52.342;5.528;2022-07-09T03:50:15;102673.63;;;16.67;70.06
43161;BME280;40968;52.342;5.528;2022-07-09T03:52:42;102683.44;;;16.81;70.24
43161;BME280;40968;52.342;5.528;2022-07-09T03:55:10;102732.88;;;17.10;70.27
43161;BME280;40968;52.342;5.528;2022-07-09T03:57:37;102589.88;;;16.14;70.26
43161;BME280;40968;52.342;5.528;2022-07-09T04:00:04;102730.28;;;16.96;70.19
43161;BME280;40968;52.342;5.528;2022-07-09T04:02:31;102785.03;;;17.38;70.33
43161;BME280;40968;52.342;5.528;2022-07-09T04:04:58;102735.03;;;17.05;70.38
43161;BME280;40968;52.342;5.528;2022-07-09T04:07:24;102759.28;;;17.19;70.58
43161;BME280;40968;52.342;5.528;2022-07-09T04:09:51;102788.72;;;17.37;70.49
43161;BME280;40968;52.342;5.528;2022-07-09T04:12:19;102782.22;;;17.39;70.20
43161;BME280;40968;52.342;5.528;2022-07-09T04:14:46;102527.56;;;15.89;70.17
43161;BME280;40968;52.342;5.528;2022-07-09T04:17:13;102778.53;;;17.40;69.89
43161;BME280;40968;52.342;5.528;2022-07-09T04:19:40;102767.94;;;17.37;69.97
43161;BME280;40968;52.342;5.528;2022-07-09T04:22:06;102780.28;;;17.42;70.23
43161;BME280;40968;52.342;5.528;2022-07-09T04:24:33;102765.88;;;17.41;70.25
43161;BME280;40968;52.342;5.528;2022-07-09T04:26:59;102741.28;;;17.18;69.81
43161;BME280;40968;52.342;5.528;2022-07-09T04:29:27;102773.00;;;17.42;70.17
43161;BME280;40968;52.342;5.528;2022-07-09T04:31:54;102769.31;;;17.43;70.37
43161;BME280;40968;52.342;5.528;2022-07-09T04:34:20;102675.00;;;16.85;70.33
43161;BME280;40968;52.342;5.528;2022-07-09T04:36:47;102764.66;;;17.45;70.72
43161;BME280;40968;52.342;5.528;2022-07-09T04:39:14;102776.47;;;17.44;70.82
43161;BME280;40968;52.342;5.528;2022-07-09T04:41:41;102763.59;;;17.35;71.15
43161;BME280;40968;52.342;5.528;2022-07-09T04:44:08;102762.16;;;17.42;71.18
43161;BME280;40968;52.342;5.528;2022-07-09T04:46:37;102717.69;;;17.07;71.13
43161;BME280;40968;52.342;5.528;2022-07-09T04:49:04;102757.41;;;17.33;71.28
43161;BME280;40968;52.342;5.528;2022-07-09T04:51:31;102762.28;;;17.40;71.62
43161;BME280;40968;52.342;5.528;2022-07-09T04:53:57;102754.25;;;17.39;71.66
43161;BME280;40968;52.342;5.528;2022-07-09T04:56:24;102696.81;;;16.97;71.58
43161;BME280;40968;52.342;5.528;2022-07-09T04:58:50;102702.13;;;16.98;71.75
43161;BME280;40968;52.342;5.528;2022-07-09T05:01:22;102731.97;;;17.22;71.90
43161;BME280;40968;52.342;5.528;2022-07-09T05:03:50;102755.03;;;17.41;71.70
43161;BME280;40968;52.342;5.528;2022-07-09T05:06:17;102766.59;;;17.43;71.71
43161;BME280;40968;52.342;5.528;2022-07-09T05:08:44;102702.72;;;17.15;71.48
43161;BME280;40968;52.342;5.528;2022-07-09T05:11:11;102735.41;;;17.37;71.87
43161;BME280;40968;52.342;5.528;2022-07-09T05:13:37;102723.25;;;17.43;71.92
43161;BME280;40968;52.342;5.528;2022-07-09T05:16:06;102726.63;;;17.34;71.97
43161;BME280;40968;52.342;5.528;2022-07-09T05:18:33;102721.31;;;17.32;71.69
43161;BME280;40968;52.342;5.528;2022-07-09T05:21:01;102752.91;;;17.57;71.67
43161;BME280;40968;52.342;5.528;2022-07-09T05:23:28;102709.41;;;17.35;71.74
43161;BME280;40968;52.342;5.528;2022-07-09T05:25:54;102647.81;;;17.00;71.88
43161;BME280;40968;52.342;5.528;2022-07-09T05:28:21;102715.09;;;17.43;72.00
43161;BME280;40968;52.342;5.528;2022-07-09T05:30:47;102717.66;;;17.57;71.99
43161;BME280;40968;52.342;5.528;2022-07-09T05:33:14;102748.09;;;17.74;72.13
43161;BME280;40968;52.342;5.528;2022-07-09T05:35:40;102750.66;;;17.76;71.96
43161;BME280;40968;52.342;5.528;2022-07-09T05:38:08;102655.88;;;17.26;72.36
43161;BME280;40968;52.342;5.528;2022-07-09T05:40:35;102637.28;;;17.08;72.14
43161;BME280;40968;52.342;5.528;2022-07-09T05:43:01;102710.41;;;17.58;72.24
43161;BME280;40968;52.342;5.528;2022-07-09T05:45:28;102701.09;;;17.49;72.41
43161;BME280;40968;52.342;5.528;2022-07-09T05:47:54;102751.31;;;17.79;72.53
43161;BME280;40968;52.342;5.528;2022-07-09T05:50:21;102748.59;;;17.79;72.54
43161;BME280;40968;52.342;5.528;2022-07-09T05:52:48;102691.47;;;17.45;72.29
43161;BME280;40968;52.342;5.528;2022-07-09T05:55:16;102765.03;;;17.89;72.48
43161;BME280;40968;52.342;5.528;2022-07-09T05:57:43;102664.06;;;17.37;72.31
43161;BME280;40968;52.342;5.528;2022-07-09T06:00:12;102765.34;;;17.97;72.20
43161;BME280;40968;52.342;5.528;2022-07-09T06:02:38;102736.28;;;17.86;72.02
43161;BME280;40968;52.342;5.528;2022-07-09T06:05:05;102748.84;;;18.00;71.93
43161;BME280;40968;52.342;5.528;2022-07-09T06:07:32;102764.44;;;18.10;71.86
43161;BME280;40968;52.342;5.528;2022-07-09T06:09:58;102726.75;;;17.94;71.93
43161;BME280;40968;52.342;5.528;2022-07-09T06:12:26;102727.16;;;18.00;71.94
43161;BME280;40968;52.342;5.528;2022-07-09T06:14:53;102751.25;;;18.16;71.82
43161;BME280;40968;52.342;5.528;2022-07-09T06:17:19;102679.31;;;17.75;71.67
43161;BME280;40968;52.342;5.528;2022-07-09T06:19:46;102771.28;;;18.27;71.96
43161;BME280;40968;52.342;5.528;2022-07-09T06:22:13;102761.91;;;18.31;71.82
43161;BME280;40968;52.342;5.528;2022-07-09T06:24:39;102675.53;;;17.89;71.50
43161;BME280;40968;52.342;5.528;2022-07-09T06:27:06;102725.50;;;18.22;71.57
43161;BME280;40968;52.342;5.528;2022-07-09T06:29:34;102723.41;;;18.26;71.47
43161;BME280;40968;52.342;5.528;2022-07-09T06:32:00;102760.75;;;18.46;71.30
43161;BME280;40968;52.342;5.528;2022-07-09T06:34:27;102765.06;;;18.49;71.35
43161;BME280;40968;52.342;5.528;2022-07-09T06:36:53;102742.78;;;18.32;71.65
43161;BME280;40968;52.342;5.528;2022-07-09T06:39:20;102708.59;;;18.18;71.27
43161;BME280;40968;52.342;5.528;2022-07-09T06:42:05;102769.53;;;18.61;70.85
43161;BME280;40968;52.342;5.528;2022-07-09T06:44:33;102754.34;;;18.59;71.00
43161;BME280;40968;52.342;5.528;2022-07-09T06:47:00;102787.19;;;18.78;70.35
43161;BME280;40968;52.342;5.528;2022-07-09T06:49:27;102632.47;;;18.09;70.12
43161;BME280;40968;52.342;5.528;2022-07-09T06:51:54;102700.03;;;18.59;69.89
43161;BME280;40968;52.342;5.528;2022-07-09T06:54:20;102678.31;;;18.59;69.97
43161;BME280;40968;52.342;5.528;2022-07-09T06:56:47;102762.94;;;19.22;68.98
43161;BME280;40968;52.342;5.528;2022-07-09T06:59:13;102612.88;;;18.39;69.17
43161;BME280;40968;52.342;5.528;2022-07-09T07:01:42;102741.81;;;19.14;68.88
43161;BME280;40968;52.342;5.528;2022-07-09T07:04:08;102766.25;;;19.26;68.58
43161;BME280;40968;52.342;5.528;2022-07-09T07:06:37;102690.19;;;18.80;68.66
43161;BME280;40968;52.342;5.528;2022-07-09T07:09:03;102761.09;;;19.22;68.26
43161;BME280;40968;52.342;5.528;2022-07-09T07:11:30;102769.97;;;19.36;68.46
43161;BME280;40968;52.342;5.528;2022-07-09T07:13:57;102776.78;;;19.42;68.42
43161;BME280;40968;52.342;5.528;2022-07-09T07:16:23;102742.28;;;19.31;67.75
43161;BME280;40968;52.342;5.528;2022-07-09T07:18:51;102704.41;;;19.07;66.26
43161;BME280;40968;52.342;5.528;2022-07-09T07:21:18;102574.41;;;18.22;65.66
43161;BME280;40968;52.342;5.528;2022-07-09T07:23:45;102777.50;;;19.44;65.81
43161;BME280;40968;52.342;5.528;2022-07-09T07:26:11;102778.13;;;19.47;65.27
43161;BME280;40968;52.342;5.528;2022-07-09T07:28:38;102675.41;;;18.96;65.17
43161;BME280;40968;52.342;5.528;2022-07-09T07:31:04;102737.97;;;19.39;65.25
43161;BME280;40968;52.342;5.528;2022-07-09T07:33:31;102712.38;;;19.31;65.23
43161;BME280;40968;52.342;5.528;2022-07-09T07:35:59;102772.88;;;19.67;65.10
43161;BME280;40968;52.342;5.528;2022-07-09T07:38:25;102735.72;;;19.56;65.28
43161;BME280;40968;52.342;5.528;2022-07-09T07:40:52;102763.81;;;19.78;64.32
43161;BME280;40968;52.342;5.528;2022-07-09T07:43:19;102672.38;;;19.21;63.61
43161;BME280;40968;52.342;5.528;2022-07-09T07:45:46;102767.44;;;19.78;63.10
43161;BME280;40968;52.342;5.528;2022-07-09T07:48:13;102756.41;;;19.80;63.53
43161;BME280;40968;52.342;5.528;2022-07-09T07:50:39;102702.34;;;19.54;63.69
43161;BME280;40968;52.342;5.528;2022-07-09T07:53:07;102754.78;;;19.88;63.97
43161;BME280;40968;52.342;5.528;2022-07-09T07:55:34;102737.38;;;19.80;63.68
43161;BME280;40968;52.342;5.528;2022-07-09T07:58:01;102760.72;;;19.94;63.64
43161;BME280;40968;52.342;5.528;2022-07-09T08:00:28;102691.38;;;19.44;63.54
43161;BME280;40968;52.342;5.528;2022-07-09T08:02:54;102719.63;;;19.64;63.42
43161;BME280;40968;52.342;5.528;2022-07-09T08:05:21;102730.56;;;19.74;63.87
43161;BME280;40968;52.342;5.528;2022-07-09T08:07:47;102740.09;;;19.80;63.93
43161;BME280;40968;52.342;5.528;2022-07-09T08:10:15;102738.38;;;19.90;63.91
43161;BME280;40968;52.342;5.528;2022-07-09T08:12:42;102731.53;;;19.96;63.49
43161;BME280;40968;52.342;5.528;2022-07-09T08:15:09;102713.25;;;19.86;63.31
43161;BME280;40968;52.342;5.528;2022-07-09T08:17:36;102712.75;;;19.93;63.17
43161;BME280;40968;52.342;5.528;2022-07-09T08:20:04;102761.97;;;20.22;62.23
43161;BME280;40968;52.342;5.528;2022-07-09T08:22:31;102745.59;;;20.01;62.63
43161;BME280;40968;52.342;5.528;2022-07-09T08:24:58;102730.31;;;19.88;63.60
43161;BME280;40968;52.342;5.528;2022-07-09T08:27:26;102771.28;;;20.08;63.77
43161;BME280;40968;52.342;5.528;2022-07-09T08:29:52;102735.97;;;19.97;62.74
43161;BME280;40968;52.342;5.528;2022-07-09T08:32:19;102734.88;;;19.99;63.50
43161;BME280;40968;52.342;5.528;2022-07-09T08:34:45;102738.63;;;20.08;63.86
43161;BME280;40968;52.342;5.528;2022-07-09T08:37:12;102705.56;;;19.92;62.83
43161;BME280;40968;52.342;5.528;2022-07-09T08:39:39;102732.94;;;20.11;62.93
43161;BME280;40968;52.342;5.528;2022-07-09T08:42:08;102757.47;;;20.32;62.16
43161;BME280;40968;52.342;5.528;2022-07-09T08:44:39;102763.25;;;20.39;62.43
43161;BME280;40968;52.342;5.528;2022-07-09T08:47:09;102713.75;;;20.13;61.98
43161;BME280;40968;52.342;5.528;2022-07-09T08:49:37;102752.63;;;20.36;61.94
43161;BME280;40968;52.342;5.528;2022-07-09T08:52:05;102749.16;;;20.34;62.31
43161;BME280;40968;52.342;5.528;2022-07-09T08:54:32;102701.31;;;19.99;62.25
43161;BME280;40968;52.342;5.528;2022-07-09T08:57:00;102741.03;;;20.23;62.37
43161;BME280;40968;52.342;5.528;2022-07-09T08:59:27;102694.19;;;19.98;62.32
43161;BME280;40968;52.342;5.528;2022-07-09T09:01:55;102698.13;;;19.94;61.60
43161;BME280;40968;52.342;5.528;2022-07-09T09:04:22;102759.53;;;20.40;61.58
43161;BME280;40968;52.342;5.528;2022-07-09T09:06:49;102754.09;;;20.40;61.34
43161;BME280;40968;52.342;5.528;2022-07-09T09:09:18;102754.78;;;20.42;61.48
43161;BME280;40968;52.342;5.528;2022-07-09T09:11:47;102761.78;;;20.35;61.34
43161;BME280;40968;52.342;5.528;2022-07-09T09:14:18;102761.91;;;20.33;61.23
43161;BME280;40968;52.342;5.528;2022-07-09T09:16:45;102703.53;;;20.05;61.83
43161;BME280;40968;52.342;5.528;2022-07-09T09:19:14;102752.50;;;20.37;61.24
43161;BME280;40968;52.342;5.528;2022-07-09T09:21:41;102744.50;;;20.25;60.96
43161;BME280;40968;52.342;5.528;2022-07-09T09:24:07;102721.97;;;20.23;60.51
43161;BME280;40968;52.342;5.528;2022-07-09T09:26:35;102751.53;;;20.48;60.67
43161;BME280;40968;52.342;5.528;2022-07-09T09:29:03;102685.47;;;20.04;60.80
43161;BME280;40968;52.342;5.528;2022-07-09T09:31:31;102765.34;;;20.57;60.62
43161;BME280;40968;52.342;5.528;2022-07-09T09:34:11;102747.56;;;20.52;60.83
43161;BME280;40968;52.342;5.528;2022-07-09T09:36:40;102736.66;;;20.52;60.85
43161;BME280;40968;52.342;5.528;2022-07-09T09:39:15;102743.31;;;20.60;59.80
43161;BME280;40968;52.342;5.528;2022-07-09T09:41:44;102748.47;;;20.63;59.82
43161;BME280;40968;52.342;5.528;2022-07-09T09:44:12;102692.31;;;20.19;58.88
43161;BME280;40968;52.342;5.528;2022-07-09T09:46:40;102636.38;;;19.73;58.59
43161;BME280;40968;52.342;5.528;2022-07-09T09:49:09;102782.25;;;20.50;57.97
43161;BME280;40968;52.342;5.528;2022-07-09T09:51:46;102787.69;;;20.50;58.20
43161;BME280;40968;52.342;5.528;2022-07-09T09:54:14;102787.81;;;20.49;58.37
43161;BME280;40968;52.342;5.528;2022-07-09T09:56:41;102732.94;;;20.11;57.61
43161;BME280;40968;52.342;5.528;2022-07-09T09:59:09;102677.06;;;19.75;57.42
43161;BME280;40968;52.342;5.528;2022-07-09T10:01:36;102587.63;;;19.28;57.83
43161;BME280;40968;52.342;5.528;2022-07-09T10:04:03;102780.56;;;20.59;57.17
43161;BME280;40968;52.342;5.528;2022-07-09T10:06:30;102739.53;;;20.51;56.89
43161;BME280;40968;52.342;5.528;2022-07-09T10:09:00;102729.47;;;20.51;55.73
43161;BME280;40968;52.342;5.528;2022-07-09T10:11:37;102748.94;;;20.68;54.21
43161;BME280;40968;52.342;5.528;2022-07-09T10:14:04;102775.13;;;21.01;54.15
43161;BME280;40968;52.342;5.528;2022-07-09T10:16:38;102753.03;;;21.04;54.51
43161;BME280;40968;52.342;5.528;2022-07-09T10:19:05;102780.69;;;21.31;53.24
43161;BME280;40968;52.342;5.528;2022-07-09T10:21:36;102781.28;;;21.44;53.40
43161;BME280;40968;52.342;5.528;2022-07-09T10:24:06;102751.53;;;21.31;53.04
43161;BME280;40968;52.342;5.528;2022-07-09T10:26:37;102732.16;;;21.25;52.19
43161;BME280;40968;52.342;5.528;2022-07-09T10:29:24;102788.19;;;21.48;52.63
43161;BME280;40968;52.342;5.528;2022-07-09T10:31:52;102736.13;;;21.11;52.58
43161;BME280;40968;52.342;5.528;2022-07-09T10:34:47;102784.59;;;21.38;53.26
43161;BME280;40968;52.342;5.528;2022-07-09T10:37:30;102680.66;;;20.81;53.22
43161;BME280;40968;52.342;5.528;2022-07-09T10:40:08;102783.00;;;21.35;52.82
43161;BME280;40968;52.342;5.528;2022-07-09T10:42:35;102724.47;;;20.99;53.50
43161;BME280;40968;52.342;5.528;2022-07-09T10:45:03;102784.53;;;21.59;53.92
43161;BME280;40968;52.342;5.528;2022-07-09T10:47:36;102706.00;;;21.12;51.96
43161;BME280;40968;52.342;5.528;2022-07-09T10:50:03;102640.13;;;20.66;52.81
43161;BME280;40968;52.342;5.528;2022-07-09T10:52:30;102793.72;;;21.58;52.62
43161;BME280;40968;52.342;5.528;2022-07-09T10:54:57;102668.34;;;20.86;52.93
43161;BME280;40968;52.342;5.528;2022-07-09T10:57:25;102794.88;;;21.56;53.22
43161;BME280;40968;52.342;5.528;2022-07-09T10:59:51;102782.66;;;21.60;52.78
43161;BME280;40968;52.342;5.528;2022-07-09T11:02:19;102780.53;;;21.73;53.02
43161;BME280;40968;52.342;5.528;2022-07-09T11:04:48;102722.94;;;21.57;52.43
43161;BME280;40968;52.342;5.528;2022-07-09T11:07:19;102703.84;;;21.66;51.71
43161;BME280;40968;52.342;5.528;2022-07-09T11:09:45;102785.91;;;22.24;52.14
43161;BME280;40968;52.342;5.528;2022-07-09T11:12:15;102779.41;;;22.34;51.88
43161;BME280;40968;52.342;5.528;2022-07-09T11:14:47;102706.59;;;21.76;51.36
43161;BME280;40968;52.342;5.528;2022-07-09T11:17:14;102780.56;;;22.32;50.74
43161;BME280;40968;52.342;5.528;2022-07-09T11:19:42;102732.16;;;22.14;50.62
43161;BME280;40968;52.342;5.528;2022-07-09T11:22:09;102711.28;;;22.33;50.73
43161;BME280;40968;52.342;5.528;2022-07-09T11:24:37;102713.03;;;22.14;50.92
43161;BME280;40968;52.342;5.528;2022-07-09T11:27:05;102787.03;;;22.31;50.56
43161;BME280;40968;52.342;5.528;2022-07-09T11:29:33;102723.09;;;21.65;51.23
43161;BME280;40968;52.342;5.528;2022-07-09T11:32:02;102788.63;;;22.24;51.73
43161;BME280;40968;52.342;5.528;2022-07-09T11:34:30;102762.03;;;22.26;51.43
43161;BME280;40968;52.342;5.528;2022-07-09T11:36:58;102765.63;;;22.56;51.32
43161;BME280;40968;52.342;5.528;2022-07-09T11:39:26;102789.69;;;22.99;49.14
43161;BME280;40968;52.342;5.528;2022-07-09T11:41:54;102718.47;;;22.91;47.56
43161;BME280;40968;52.342;5.528;2022-07-09T11:44:22;102797.72;;;23.01;48.70
43161;BME280;40968;52.342;5.528;2022-07-09T11:47:06;102760.72;;;22.59;48.33
43161;BME280;40968;52.342;5.528;2022-07-09T11:49:34;102759.28;;;22.26;49.29
43161;BME280;40968;52.342;5.528;2022-07-09T11:52:02;102743.78;;;21.97;48.75
43161;BME280;40968;52.342;5.528;2022-07-09T11:54:30;102691.34;;;21.64;48.92
43161;BME280;40968;52.342;5.528;2022-07-09T11:56:57;102762.44;;;22.31;48.51
43161;BME280;40968;52.342;5.528;2022-07-09T11:59:27;102730.84;;;22.18;47.48
43161;BME280;40968;52.342;5.528;2022-07-09T12:01:58;102774.53;;;22.58;47.31
43161;BME280;40968;52.342;5.528;2022-07-09T12:04:29;102807.53;;;22.94;45.54
43161;BME280;40968;52.342;5.528;2022-07-09T12:06:57;102787.91;;;23.08;44.78
43161;BME280;40968;52.342;5.528;2022-07-09T12:09:29;102789.47;;;23.48;45.09
43161;BME280;40968;52.342;5.528;2022-07-09T12:11:57;102755.66;;;23.22;44.88
43161;BME280;40968;52.342;5.528;2022-07-09T12:14:24;102790.78;;;23.72;44.86
43161;BME280;40968;52.342;5.528;2022-07-09T12:16:51;102678.72;;;23.34;43.47
43161;BME280;40968;52.342;5.528;2022-07-09T12:19:18;102763.59;;;23.89;43.40
43161;BME280;40968;52.342;5.528;2022-07-09T12:21:47;102760.09;;;23.96;44.05
43161;BME280;40968;52.342;5.528;2022-07-09T12:24:14;102759.72;;;24.09;43.86
43161;BME280;40968;52.342;5.528;2022-07-09T12:26:40;102688.72;;;23.80;42.32
43161;BME280;40968;52.342;5.528;2022-07-09T12:29:08;102746.84;;;24.28;42.65
43161;BME280;40968;52.342;5.528;2022-07-09T12:31:34;102780.81;;;24.17;43.69
43161;BME280;40968;52.342;5.528;2022-07-09T12:34:03;102773.00;;;24.04;43.57
43161;BME280;40968;52.342;5.528;2022-07-09T12:36:30;102759.44;;;24.03;43.27
43161;BME280;40968;52.342;5.528;2022-07-09T12:38:59;102732.50;;;23.90;43.60
43161;BME280;40968;52.342;5.528;2022-07-09T12:41:26;102747.66;;;24.02;43.61
43161;BME280;40968;52.342;5.528;2022-07-09T12:43:52;102745.13;;;23.91;42.25
43161;BME280;40968;52.342;5.528;2022-07-09T12:46:19;102774.00;;;24.21;43.37
43161;BME280;40968;52.342;5.528;2022-07-09T12:48:46;102700.38;;;23.64;44.37
43161;BME280;40968;52.342;5.528;2022-07-09T12:51:13;102778.22;;;24.15;44.38
43161;BME280;40968;52.342;5.528;2022-07-09T12:53:40;102673.34;;;23.61;44.33